createdAt,value
2023-07-08T00:04:16.010Z,20.58
2023-07-08T00:09:19.581Z,20.53
2023-07-08T00:14:23.165Z,20.78
2023-07-08T00:19:28.021Z,20.67
2023-07-08T00:24:31.469Z,20.64
2023-07-08T00:29:34.982Z,20.39
2023-07-08T00:34:39.870Z,20.55
2023-07-08T00:39:43.427Z,20.48
2023-07-08T00:44:47.044Z,20.41
2023-07-08T00:49:58.170Z,20.41
2023-07-08T00:55:06.736Z,20.19
2023-07-08T01:00:13.925Z,20.32
2023-07-08T01:05:22.906Z,20.47
2023-07-08T01:10:43.141Z,20.23
2023-07-08T01:15:50.268Z,20.21
2023-07-08T01:20:56.750Z,20.20
2023-07-08T01:26:02.917Z,20.17
2023-07-08T01:31:07.986Z,20.19
2023-07-08T01:36:13.201Z,20.14
2023-07-08T01:41:19.326Z,20.15
2023-07-08T01:46:25.956Z,20.14
2023-07-08T01:51:30.517Z,20.11
2023-07-08T01:56:35.718Z,20.14
2023-07-08T02:01:39.898Z,20.00
2023-07-08T02:06:44.287Z,20.11
2023-07-08T02:11:52.894Z,20.05
2023-07-08T02:16:56.730Z,20.01
2023-07-08T02:22:00.258Z,19.94
2023-07-08T02:27:05.847Z,19.93
2023-07-08T02:32:11.005Z,20.02
2023-07-08T02:37:14.516Z,19.95
2023-07-08T02:42:19.489Z,19.98
2023-07-08T02:47:23.242Z,19.94
2023-07-08T02:52:27.149Z,19.90
2023-07-08T02:57:32.176Z,19.95
2023-07-08T03:02:35.873Z,19.94
2023-07-08T03:07:40.292Z,20.00
2023-07-08T03:12:45.183Z,20.23
2023-07-08T03:17:49.958Z,20.07
2023-07-08T03:22:53.524Z,20.16
2023-07-08T03:27:59.488Z,20.06
2023-07-08T03:33:04.281Z,19.95
2023-07-08T03:38:08.439Z,20.07
2023-07-08T03:43:13.319Z,19.95
2023-07-08T03:48:16.870Z,20.02
2023-07-08T03:53:21.652Z,19.96
2023-07-08T03:58:26.976Z,19.87
2023-07-08T04:03:30.901Z,19.98
2023-07-08T04:08:34.499Z,20.13
2023-07-08T04:13:39.774Z,20.05
2023-07-08T04:18:43.438Z,19.99
2023-07-08T04:23:47.387Z,20.14
2023-07-08T04:28:52.881Z,20.24
2023-07-08T04:33:56.517Z,20.44
2023-07-08T04:39:01.152Z,20.44
2023-07-08T04:44:07.925Z,20.40
2023-07-08T04:49:11.788Z,20.31
2023-07-08T04:54:15.721Z,20.34
2023-07-08T04:59:25.577Z,20.33
2023-07-08T05:04:29.051Z,20.40
2023-07-08T05:09:32.916Z,20.41
2023-07-08T05:14:38.128Z,20.41
2023-07-08T05:19:42.783Z,20.36
2023-07-08T05:24:48.037Z,20.56
2023-07-08T05:29:53.506Z,20.65
2023-07-08T05:34:57.077Z,20.42
2023-07-08T05:40:03.033Z,20.22
2023-07-08T05:45:11.323Z,20.28
2023-07-08T05:50:15.144Z,20.26
2023-07-08T05:55:18.583Z,20.19
2023-07-08T06:05:34.813Z,19.57
2023-07-08T06:10:44.715Z,19.63
2023-07-08T06:15:50.044Z,19.62
2023-07-08T06:20:54.957Z,19.64
2023-07-08T06:25:59.120Z,19.70
2023-07-08T06:31:04.226Z,19.87
2023-07-08T06:36:08.955Z,20.02
2023-07-08T06:41:12.403Z,20.24
2023-07-08T06:46:17.356Z,20.31
2023-07-08T06:51:21.098Z,20.64
2023-07-08T06:56:24.696Z,20.53
2023-07-08T07:01:29.705Z,20.24
2023-07-08T07:06:33.215Z,20.25
2023-07-08T07:11:36.673Z,20.31
2023-07-08T07:16:44.987Z,20.43
2023-07-08T07:21:55.604Z,20.59
2023-07-08T07:26:59.333Z,20.65
2023-07-08T07:32:04.259Z,20.95
2023-07-08T07:37:08.246Z,21.21
2023-07-08T07:42:15.601Z,21.43
2023-07-08T07:47:21.993Z,21.34
2023-07-08T07:52:25.656Z,21.46
2023-07-08T07:57:29.176Z,21.61
2023-07-08T08:02:34.158Z,21.43
2023-07-08T08:07:38.318Z,21.50
2023-07-08T08:12:53.041Z,21.39
2023-07-08T08:17:58.967Z,21.53
2023-07-08T08:23:02.846Z,21.71
2023-07-08T08:28:06.605Z,22.02
2023-07-08T08:33:11.885Z,22.34
2023-07-08T08:38:15.810Z,22.58
2023-07-08T08:43:23.980Z,22.63
2023-07-08T08:48:32.593Z,22.96
2023-07-08T08:53:36.246Z,24.28
2023-07-08T08:58:46.484Z,23.21
2023-07-08T09:03:56.937Z,22.72
2023-07-08T09:09:07.964Z,23.08
2023-07-08T09:14:21.095Z,22.94
2023-07-08T09:19:28.725Z,23.00
2023-07-08T09:24:44.468Z,23.45
2023-07-08T09:29:48.692Z,23.55
2023-07-08T09:34:56.612Z,22.76
2023-07-08T09:40:02.135Z,22.32
2023-07-08T09:45:16.094Z,22.27
2023-07-08T09:50:24.403Z,22.14
2023-07-08T09:55:29.288Z,22.08
2023-07-08T10:00:40.730Z,21.61
2023-07-08T10:05:48.989Z,21.73
2023-07-08T10:11:06.227Z,21.75
2023-07-08T10:16:16.199Z,21.67
2023-07-08T10:21:33.501Z,21.51
2023-07-08T10:26:39.386Z,21.62
2023-07-08T10:31:48.413Z,21.68
2023-07-08T10:37:02.865Z,21.39
2023-07-08T10:42:17.417Z,22.34
2023-07-08T10:47:36.474Z,22.66
2023-07-08T10:52:53.649Z,22.23
2023-07-08T10:58:16.497Z,21.74
2023-07-08T11:03:48.594Z,21.90
2023-07-08T11:09:00.847Z,21.88
2023-07-08T11:14:12.494Z,22.52
2023-07-08T11:19:20.447Z,23.48
2023-07-08T11:24:34.230Z,23.00
2023-07-08T11:29:42.793Z,22.30
2023-07-08T11:34:49.828Z,22.23
2023-07-08T11:40:00.843Z,22.00
2023-07-08T11:45:10.684Z,22.20
2023-07-08T11:50:20.892Z,22.41
2023-07-08T11:55:31.128Z,22.46
2023-07-08T12:00:37.876Z,23.81
2023-07-08T12:05:41.653Z,23.09
2023-07-08T12:10:52.862Z,22.84
2023-07-08T12:15:56.415Z,22.72
2023-07-08T12:21:02.601Z,23.05
2023-07-08T12:26:11.062Z,22.74
2023-07-08T12:31:19.222Z,22.64
2023-07-08T12:36:26.245Z,22.99
2023-07-08T12:41:34.226Z,22.43
2023-07-08T12:46:38.067Z,22.82
2023-07-08T12:51:44.986Z,22.99
2023-07-08T12:56:50.113Z,22.93
2023-07-08T13:01:55.233Z,22.84
2023-07-08T13:06:58.783Z,22.64
2023-07-08T13:12:07.302Z,22.81
2023-07-08T13:17:13.753Z,22.64
2023-07-08T13:22:21.674Z,22.86
2023-07-08T13:27:28.028Z,22.78
2023-07-08T13:32:33.441Z,23.23
2023-07-08T13:37:38.241Z,22.87
2023-07-08T13:42:49.454Z,23.36
2023-07-08T13:48:04.048Z,22.70
2023-07-08T13:53:19.384Z,22.52
2023-07-08T13:58:29.533Z,22.34
2023-07-08T14:03:33.258Z,22.36
2023-07-08T14:08:36.805Z,22.23
2023-07-08T14:13:42.001Z,22.24
2023-07-08T14:18:46.339Z,22.50
2023-07-08T14:23:50.806Z,22.04
2023-07-08T14:28:55.726Z,22.13
2023-07-08T14:34:07.076Z,21.95
2023-07-08T14:39:21.046Z,21.82
2023-07-08T14:44:28.988Z,21.83
2023-07-08T14:49:32.360Z,21.85
2023-07-08T14:54:36.119Z,21.84
2023-07-08T14:59:41.010Z,22.41
2023-07-08T15:04:44.773Z,22.03
2023-07-08T15:09:48.739Z,21.75
2023-07-08T15:14:53.596Z,21.65
2023-07-08T15:19:57.000Z,21.66
2023-07-08T15:25:00.406Z,21.69
2023-07-08T15:30:06.150Z,21.78
2023-07-08T15:35:14.784Z,21.60
2023-07-08T15:40:19.938Z,21.76
2023-07-08T15:45:27.239Z,21.53
2023-07-08T15:50:31.415Z,21.60
2023-07-08T15:55:38.750Z,21.72
2023-07-08T16:00:44.085Z,21.59
2023-07-08T16:05:47.504Z,21.48
2023-07-08T16:10:54.433Z,21.43
2023-07-08T16:15:59.456Z,21.47
2023-07-08T16:21:03.204Z,21.32
2023-07-08T16:26:07.253Z,21.20
2023-07-08T16:31:14.122Z,21.08
2023-07-08T16:36:20.446Z,20.91
2023-07-08T16:41:27.935Z,20.89
2023-07-08T16:46:32.820Z,20.82
2023-07-08T16:51:36.457Z,20.84
2023-07-08T16:56:41.219Z,20.72
2023-07-08T17:01:48.412Z,20.72
2023-07-08T17:06:51.842Z,20.70
2023-07-08T17:11:55.628Z,20.81
2023-07-08T17:17:00.633Z,20.70
2023-07-08T17:22:04.126Z,20.57
2023-07-08T17:27:08.179Z,20.45
2023-07-08T17:32:14.307Z,20.48
2023-07-08T17:37:17.847Z,20.50
2023-07-08T17:42:21.587Z,20.40
2023-07-08T17:47:26.476Z,20.40
2023-07-08T17:52:30.036Z,20.14
2023-07-08T17:57:33.486Z,20.09
2023-07-08T18:02:38.650Z,19.90
2023-07-08T18:07:42.199Z,19.74
2023-07-08T18:12:47.168Z,19.52
2023-07-08T18:17:54.954Z,19.37
2023-07-08T18:22:59.150Z,19.32
2023-07-08T18:28:03.672Z,19.18
2023-07-08T18:33:13.604Z,19.05
2023-07-08T18:38:17.648Z,18.90
2023-07-08T18:43:23.349Z,18.95
2023-07-08T18:48:28.173Z,18.87
2023-07-08T18:53:31.578Z,18.85
2023-07-08T18:58:35.568Z,18.82
2023-07-08T19:03:41.147Z,18.55
2023-07-08T19:08:47.757Z,18.70
2023-07-08T19:13:52.458Z,18.76
2023-07-08T19:18:57.391Z,18.69
2023-07-08T19:24:01.594Z,18.75
2023-07-08T19:29:05.309Z,18.77
2023-07-08T19:34:14.917Z,18.91
2023-07-08T19:39:18.348Z,18.90
2023-07-08T19:44:26.660Z,18.73
2023-07-08T19:49:31.533Z,18.69
2023-07-08T19:54:35.049Z,18.77
2023-07-08T19:59:38.613Z,18.83
2023-07-08T20:04:49.280Z,18.93
2023-07-08T20:09:52.879Z,18.98
2023-07-08T20:14:57.364Z,19.01
2023-07-08T20:20:02.359Z,19.12
2023-07-08T20:25:07.358Z,19.14
2023-07-08T20:30:22.088Z,19.36
2023-07-08T20:35:30.048Z,19.44
2023-07-08T20:40:33.866Z,19.35
2023-07-08T20:45:37.610Z,19.27
2023-07-08T20:50:42.609Z,19.26
2023-07-08T20:55:46.311Z,19.17
2023-07-08T21:00:50.543Z,19.12
2023-07-08T21:05:57.739Z,19.28
2023-07-08T21:11:01.288Z,19.37
2023-07-08T21:16:05.457Z,19.36
2023-07-08T21:21:12.447Z,19.44
2023-07-08T21:26:21.810Z,19.53
2023-07-08T21:31:25.387Z,19.57
2023-07-08T21:36:34.575Z,19.57
2023-07-08T21:41:38.213Z,19.66
2023-07-08T21:46:41.913Z,19.66
2023-07-08T21:51:47.272Z,19.70
2023-07-08T21:56:50.771Z,19.72
2023-07-08T22:01:54.266Z,19.59
2023-07-08T22:07:02.330Z,19.61
2023-07-08T22:12:07.371Z,19.62
2023-07-08T22:17:17.591Z,19.63
2023-07-08T22:22:24.754Z,19.65
2023-07-08T22:27:28.157Z,19.61
2023-07-08T22:32:31.834Z,19.59
2023-07-08T22:37:36.735Z,19.62
2023-07-08T22:42:41.075Z,19.63
2023-07-08T22:47:46.542Z,19.57
2023-07-08T22:52:54.453Z,19.48
2023-07-08T22:58:01.388Z,19.46
2023-07-08T23:03:05.538Z,19.53
2023-07-08T23:08:14.862Z,19.41
2023-07-08T23:13:19.814Z,19.35
2023-07-08T23:18:23.373Z,19.36
2023-07-08T23:23:28.252Z,19.27
2023-07-08T23:28:31.897Z,19.14
2023-07-08T23:33:35.337Z,19.15
2023-07-08T23:38:40.171Z,19.13
2023-07-08T23:43:46.042Z,19.10
2023-07-08T23:48:49.713Z,19.10
2023-07-08T23:53:54.588Z,18.99
2023-07-08T23:58:58.566Z,18.98
